Time;durP1;ratioP1;P1;durP2;ratioP2;P2;SDS_P1;SDS_P2;PMS_P1;PMS_P2;Temp;Humidity;BMP_temperature;BMP_pressure;BME280_temperature;BME280_humidity;BME280_pressure;Samples;Min_cycle;Max_cycle;Signal;HPM_P1;HPM_P2
2022/06/30 00:02:16;;;;;;;6.40;2.80;;;;;19.60;97360.00;;;;110693;1253;41264;-70
2022/06/30 00:04:46;;;;;;;6.10;2.70;;;;;19.52;97358.00;;;;110499;1254;41254;-67
2022/06/30 00:07:17;;;;;;;8.70;2.70;;;;;19.50;97355.40;;;;110473;1256;41263;-68
2022/06/30 00:09:46;;;;;;;;;;;;;19.50;97354.00;;;;110541;1255;41266;-69
2022/06/30 00:12:17;;;;;;;6.80;2.50;;;;;19.50;97353.80;;;;110720;1253;41663;-68
2022/06/30 00:14:46;;;;;;;6.60;2.50;;;;;19.50;97352.60;;;;110676;1253;41948;-69
2022/06/30 00:17:16;;;;;;;7.00;2.30;;;;;19.50;97353.20;;;;110649;1253;41262;-69
2022/06/30 00:19:45;;;;;;;4.90;2.00;;;;;19.50;97350.00;;;;110636;1254;41730;-68
2022/06/30 00:22:15;;;;;;;5.50;2.30;;;;;19.50;97349.40;;;;110606;1255;41629;-68
2022/06/30 00:24:45;;;;;;;6.10;2.10;;;;;19.50;97344.80;;;;110559;1255;41134;-68
2022/06/30 00:27:15;;;;;;;5.40;2.50;;;;;19.50;97340.60;;;;110603;1253;41621;-68
2022/06/30 00:29:45;;;;;;;7.00;2.70;;;;;19.50;97338.20;;;;110625;1254;41761;-69
2022/06/30 00:32:14;;;;;;;7.20;2.90;;;;;19.50;97332.00;;;;110597;1254;41619;-69
2022/06/30 00:34:45;;;;;;;7.40;2.40;;;;;19.50;97334.00;;;;110701;1253;41927;-68
2022/06/30 00:37:14;;;;;;;5.50;2.40;;;;;19.50;97335.00;;;;110661;1253;40928;-68
2022/06/30 00:39:43;;;;;;;7.10;2.30;;;;;19.50;97334.20;;;;110552;1256;41294;-68
2022/06/30 00:42:12;;;;;;;4.00;2.10;;;;;19.42;97335.20;;;;110632;1254;41704;-66
2022/06/30 00:44:42;;;;;;;6.10;2.40;;;;;19.40;97334.00;;;;110698;1252;41265;-67
2022/06/30 00:47:12;;;;;;;6.80;2.20;;;;;19.40;97330.20;;;;110630;1254;41314;-68
2022/06/30 00:49:41;;;;;;;5.40;2.40;;;;;19.40;97327.60;;;;110661;1254;41761;-67
2022/06/30 00:52:12;;;;;;;6.10;2.70;;;;;19.30;97322.40;;;;110552;1256;41693;-68
2022/06/30 00:54:42;;;;;;;5.50;2.40;;;;;19.30;97325.00;;;;110767;1253;41409;-68
2022/06/30 00:57:11;;;;;;;8.00;2.70;;;;;19.30;97321.80;;;;110691;1253;41754;-67
2022/06/30 00:59:41;;;;;;;6.30;2.20;;;;;19.20;97320.80;;;;110536;1254;41642;-68
2022/06/30 01:02:13;;;;;;;5.50;2.40;;;;;19.20;97319.20;;;;110656;1255;41864;-68
2022/06/30 01:04:42;;;;;;;6.00;2.30;;;;;19.20;97313.40;;;;110647;1255;41175;-69
2022/06/30 01:07:14;;;;;;;5.90;2.60;;;;;19.10;97314.80;;;;110554;1254;40758;-68
2022/06/30 01:12:43;;;;;;;5.30;2.20;;;;;19.00;97314.40;;;;110746;1253;41924;-68
2022/06/30 01:15:18;;;;;;;4.80;2.30;;;;;18.94;97313.60;;;;110675;1254;41162;-70
2022/06/30 01:17:51;;;;;;;5.00;2.20;;;;;18.90;97313.40;;;;110793;1252;41612;-69
2022/06/30 01:20:24;;;;;;;;;;;;;18.90;97313.80;;;;110578;1253;41894;-67
2022/06/30 01:22:56;;;;;;;4.70;2.20;;;;;18.80;97311.60;;;;110712;1253;41295;-67
2022/06/30 01:25:27;;;;;;;4.70;2.00;;;;;18.80;97310.60;;;;110655;1253;41146;-68
2022/06/30 01:27:56;;;;;;;6.00;2.20;;;;;18.80;97318.20;;;;110664;1254;41422;-68
2022/06/30 01:30:25;;;;;;;6.40;2.70;;;;;18.80;97323.40;;;;110832;1253;41407;-67
2022/06/30 01:32:56;;;;;;;5.40;2.30;;;;;18.72;97321.00;;;;110656;1255;41200;-69
2022/06/30 01:35:27;;;;;;;6.30;2.80;;;;;18.70;97322.80;;;;110753;1253;41264;-67
2022/06/30 01:37:59;;;;;;;6.00;2.60;;;;;18.68;97327.80;;;;110683;1254;40782;-67
2022/06/30 01:40:33;;;;;;;5.70;2.40;;;;;18.60;97323.80;;;;110622;1256;40733;-67
2022/06/30 01:43:11;;;;;;;7.20;2.80;;;;;18.60;97327.40;;;;110717;1254;41790;-67
2022/06/30 01:45:43;;;;;;;6.70;3.00;;;;;18.60;97325.80;;;;110621;1254;41173;-67
2022/06/30 01:48:15;;;;;;;6.30;3.00;;;;;18.60;97328.00;;;;110889;1253;41273;-67
2022/06/30 01:50:47;;;;;;;5.80;2.70;;;;;18.60;97324.00;;;;110715;1254;42134;-67
2022/06/30 01:53:16;;;;;;;6.60;2.70;;;;;18.60;97326.00;;;;110636;1253;42468;-68
2022/06/30 01:55:47;;;;;;;6.00;2.60;;;;;18.50;97327.60;;;;110659;1254;41354;-68
2022/06/30 01:58:16;;;;;;;;;;;;;18.50;97324.20;;;;110766;1254;41895;-67
2022/06/30 02:00:49;;;;;;;6.00;2.60;;;;;18.40;97331.20;;;;110787;1254;41269;-67
2022/06/30 02:03:22;;;;;;;7.60;3.10;;;;;18.40;97326.40;;;;110756;1254;41758;-67
2022/06/30 02:05:52;;;;;;;7.30;3.00;;;;;18.40;97325.80;;;;110722;1254;41159;-66
2022/06/30 02:08:23;;;;;;;7.40;3.10;;;;;18.40;97325.20;;;;110789;1254;41162;-68
2022/06/30 02:10:55;;;;;;;7.00;2.80;;;;;18.40;97330.40;;;;110731;1254;42206;-68
2022/06/30 02:13:24;;;;;;;7.10;2.50;;;;;18.40;97334.40;;;;110617;1254;41264;-68
2022/06/30 02:15:54;;;;;;;4.80;2.20;;;;;18.36;97337.20;;;;110674;1254;41257;-68
2022/06/30 02:18:25;;;;;;;7.10;3.00;;;;;18.30;97340.20;;;;110693;1254;42546;-68
2022/06/30 02:20:57;;;;;;;6.80;2.90;;;;;18.30;97340.20;;;;110656;1254;41138;-67
2022/06/30 02:23:28;;;;;;;7.90;3.30;;;;;18.28;97339.20;;;;110759;1253;41260;-67
2022/06/30 02:26:01;;;;;;;9.80;3.20;;;;;18.20;97340.00;;;;110860;1253;41149;-67
2022/06/30 02:28:32;;;;;;;9.10;3.40;;;;;18.10;97338.20;;;;110495;1254;41143;-67
2022/06/30 02:31:04;;;;;;;7.10;3.00;;;;;18.10;97340.40;;;;110605;1254;41340;-66
2022/06/30 02:33:34;;;;;;;10.40;2.60;;;;;18.18;97335.00;;;;110535;1253;42043;-68
2022/06/30 02:36:05;;;;;;;6.40;2.70;;;;;18.14;97341.60;;;;110466;1253;41423;-68
2022/06/30 02:38:36;;;;;;;5.80;2.40;;;;;18.12;97335.60;;;;110345;1254;41155;-67
2022/06/30 02:41:06;;;;;;;;;;;;;18.10;97333.00;;;;110431;1255;42371;-66
2022/06/30 02:43:36;;;;;;;8.30;3.10;;;;;18.10;97339.00;;;;110597;1254;41143;-66
2022/06/30 02:46:07;;;;;;;6.50;2.90;;;;;18.12;97342.40;;;;110584;1254;41706;-67
2022/06/30 02:48:37;;;;;;;7.00;3.00;;;;;18.18;97338.40;;;;110546;1254;41614;-67
2022/06/30 02:51:07;;;;;;;7.40;3.10;;;;;18.20;97343.40;;;;110465;1256;41164;-67
2022/06/30 02:53:38;;;;;;;7.80;3.10;;;;;18.20;97344.40;;;;110544;1254;41152;-67
2022/06/30 02:56:08;;;;;;;9.40;3.00;;;;;18.20;97343.40;;;;110619;1253;41260;-66
2022/06/30 02:58:42;;;;;;;6.00;2.60;;;;;18.10;97341.20;;;;110614;1254;42480;-67
2022/06/30 03:01:12;;;;;;;5.40;2.50;;;;;18.10;97338.60;;;;110532;1254;41754;-66
2022/06/30 03:03:43;;;;;;;5.50;2.30;;;;;18.00;97336.80;;;;110495;1254;42474;-66
2022/06/30 03:06:12;;;;;;;6.20;2.70;;;;;18.00;97339.80;;;;110519;1254;42051;-66
2022/06/30 03:08:43;;;;;;;6.10;2.20;;;;;18.00;97340.60;;;;110330;1254;41732;-67
2022/06/30 03:11:16;;;;;;;5.30;2.30;;;;;18.00;97332.40;;;;110478;1254;41277;-66
2022/06/30 03:14:07;;;;;;;5.60;2.40;;;;;18.00;97333.60;;;;110540;1254;42063;-66
2022/06/30 03:16:37;;;;;;;6.80;3.30;;;;;18.04;97334.40;;;;110479;1254;42537;-67
2022/06/30 03:19:06;;;;;;;8.10;3.10;;;;;18.10;97337.80;;;;110560;1253;41136;-66
2022/06/30 03:21:36;;;;;;;7.80;2.80;;;;;18.10;97336.60;;;;110565;1254;41718;-66
2022/06/30 03:24:07;;;;;;;5.20;2.20;;;;;18.10;97340.80;;;;110563;1254;41173;-67
2022/06/30 03:26:37;;;;;;;5.00;2.30;;;;;18.10;97339.40;;;;110463;1254;41625;-66
2022/06/30 03:29:07;;;;;;;5.90;2.70;;;;;18.20;97348.40;;;;110541;1254;41261;-67
2022/06/30 03:31:37;;;;;;;7.10;2.40;;;;;18.20;97344.80;;;;110583;1253;41267;-67
2022/06/30 03:34:08;;;;;;;9.40;2.80;;;;;18.30;97347.40;;;;110566;1255;41268;-67
2022/06/30 03:36:40;;;;;;;9.10;3.10;;;;;18.30;97347.00;;;;110545;1254;41319;-67
2022/06/30 03:39:10;;;;;;;8.50;3.50;;;;;18.40;97347.80;;;;110694;1253;41959;-67
2022/06/30 03:41:39;;;;;;;9.50;3.50;;;;;18.42;97344.40;;;;110617;1253;41138;-68
2022/06/30 03:44:09;;;;;;;7.70;2.80;;;;;18.50;97348.20;;;;110463;1253;41171;-67
2022/06/30 03:46:39;;;;;;;6.70;2.60;;;;;18.50;97351.40;;;;110581;1254;42402;-66
2022/06/30 03:49:10;;;;;;;6.90;2.80;;;;;18.60;97355.40;;;;110544;1254;41396;-67
2022/06/30 03:51:39;;;;;;;5.30;2.30;;;;;18.60;97355.00;;;;110487;1254;41142;-67
2022/06/30 03:54:09;;;;;;;5.60;2.60;;;;;18.70;97354.00;;;;110412;1254;41161;-67
2022/06/30 03:56:39;;;;;;;6.20;2.70;;;;;18.74;97353.80;;;;110311;1254;41258;-67
2022/06/30 03:59:09;;;;;;;7.30;2.90;;;;;18.80;97348.20;;;;110465;1254;41386;-66
2022/06/30 04:01:39;;;;;;;8.50;3.50;;;;;18.90;97345.60;;;;110484;1254;42065;-67
2022/06/30 04:04:09;;;;;;;7.50;3.50;;;;;19.00;97347.00;;;;110555;1254;41956;-67
2022/06/30 04:06:38;;;;;;;8.10;3.70;;;;;19.06;97347.80;;;;110395;1254;41349;-67
2022/06/30 04:09:08;;;;;;;9.70;3.70;;;;;19.16;97352.40;;;;110366;1254;41336;-67
2022/06/30 04:11:38;;;;;;;10.90;3.30;;;;;19.28;97351.60;;;;110565;1254;41168;-68
2022/06/30 04:14:07;;;;;;;7.60;3.20;;;;;19.38;97351.20;;;;110595;1254;41391;-67
2022/06/30 04:16:37;;;;;;;10.40;3.40;;;;;19.50;97350.00;;;;110525;1254;41313;-68
2022/06/30 04:19:07;;;;;;;8.20;3.50;;;;;19.60;97349.60;;;;110557;1253;41152;-67
2022/06/30 04:21:37;;;;;;;9.10;3.50;;;;;19.70;97350.60;;;;110471;1254;41379;-68
2022/06/30 04:24:07;;;;;;;6.70;3.10;;;;;19.92;97344.40;;;;110434;1254;41138;-68
2022/06/30 04:26:36;;;;;;;6.10;2.60;;;;;20.92;97330.40;;;;110417;1254;41861;-69
2022/06/30 04:29:05;;;;;;;12.90;2.70;;;;;22.38;97320.00;;;;110467;1254;41348;-68
2022/06/30 04:34:23;;;;;;;9.90;3.40;;;;;25.00;97315.80;;;;110550;1254;41127;-67
2022/06/30 04:36:53;;;;;;;8.50;3.20;;;;;25.86;97313.60;;;;110597;1253;41950;-67
2022/06/30 04:39:22;;;;;;;7.70;2.90;;;;;26.50;97311.40;;;;110560;1254;41864;-68
2022/06/30 04:41:52;;;;;;;6.90;3.40;;;;;26.82;97310.40;;;;110419;1256;41932;-67
2022/06/30 04:44:21;;;;;;;11.60;3.40;;;;;27.10;97308.40;;;;110494;1253;42428;-67
2022/06/30 04:46:51;;;;;;;8.50;3.30;;;;;27.60;97311.00;;;;110577;1253;41304;-68
2022/06/30 04:49:21;;;;;;;11.20;3.80;;;;;28.14;97310.20;;;;110508;1254;41345;-68
2022/06/30 04:51:51;;;;;;;8.60;3.30;;;;;28.30;97311.00;;;;110505;1255;41419;-69
2022/06/30 04:54:20;;;;;;;7.80;3.10;;;;;29.00;97304.80;;;;110749;1253;41908;-68
2022/06/30 04:56:50;;;;;;;8.00;3.10;;;;;29.40;97304.60;;;;110794;1253;41587;-68
2022/06/30 04:59:19;;;;;;;8.50;2.90;;;;;29.80;97303.40;;;;110687;1253;41134;-68
2022/06/30 05:01:49;;;;;;;9.90;3.20;;;;;30.40;97301.20;;;;110662;1254;41217;-69
2022/06/30 05:04:18;;;;;;;6.70;2.80;;;;;30.90;97309.00;;;;110540;1253;41147;-68
2022/06/30 05:06:48;;;;;;;12.50;3.50;;;;;31.60;97304.60;;;;110428;1254;42084;-68
2022/06/30 05:09:17;;;;;;;10.40;3.00;;;;;32.08;97310.60;;;;110478;1254;41298;-68
2022/06/30 05:11:47;;;;;;;7.80;3.10;;;;;32.40;97306.80;;;;110548;1254;41952;-68
2022/06/30 05:14:16;;;;;;;7.50;2.80;;;;;32.80;97310.40;;;;110333;1254;42127;-67
2022/06/30 05:16:46;;;;;;;7.60;2.70;;;;;33.30;97310.00;;;;110472;1254;41604;-66
2022/06/30 05:19:16;;;;;;;6.30;2.70;;;;;33.70;97307.60;;;;110442;1255;42392;-67
2022/06/30 05:21:45;;;;;;;5.90;2.50;;;;;34.20;97307.60;;;;110560;1254;41149;-68
2022/06/30 05:27:02;;;;;;;7.40;3.20;;;;;34.34;97303.80;;;;110583;1252;41732;-67
2022/06/30 05:29:31;;;;;;;11.10;2.70;;;;;34.16;97308.60;;;;110513;1254;41179;-67
2022/06/30 05:32:01;;;;;;;8.10;2.60;;;;;33.62;97331.80;;;;110638;1254;41139;-67
2022/06/30 05:34:31;;;;;;;7.40;2.50;;;;;32.78;97337.00;;;;110446;1256;42411;-68
2022/06/30 05:37:00;;;;;;;9.40;3.10;;;;;31.98;97340.80;;;;110534;1254;41268;-66
2022/06/30 05:39:32;;;;;;;6.80;2.80;;;;;31.08;97346.20;;;;110453;1254;41265;-68
2022/06/30 05:42:02;;;;;;;9.10;2.50;;;;;30.36;97347.00;;;;110490;1254;41201;-68
2022/06/30 05:44:32;;;;;;;6.80;2.80;;;;;29.94;97348.60;;;;110546;1253;41169;-67
2022/06/30 05:47:02;;;;;;;6.20;2.60;;;;;29.70;97355.40;;;;110276;1254;42180;-68
2022/06/30 05:49:30;;;;;;;6.70;2.70;;;;;29.50;97357.40;;;;110387;1256;41267;-68
2022/06/30 05:52:00;;;;;;;6.50;2.50;;;;;29.32;97360.40;;;;110504;1254;41188;-68
2022/06/30 05:54:29;;;;;;;5.90;2.40;;;;;29.20;97360.60;;;;110550;1254;40714;-67
2022/06/30 05:56:59;;;;;;;6.30;2.60;;;;;29.24;97365.80;;;;110497;1254;41267;-67
2022/06/30 05:59:28;;;;;;;7.20;2.70;;;;;29.66;97347.80;;;;110567;1254;41192;-68
2022/06/30 06:01:59;;;;;;;6.40;2.80;;;;;30.54;97336.40;;;;110517;1254;41197;-67
2022/06/30 06:04:28;;;;;;;4.80;2.30;;;;;31.38;97331.20;;;;110526;1254;42071;-67
2022/06/30 06:06:57;;;;;;;5.90;2.60;;;;;32.40;97327.80;;;;110513;1254;41771;-68
2022/06/30 06:09:26;;;;;;;4.50;2.30;;;;;33.44;97323.60;;;;110637;1256;42164;-66
2022/06/30 06:11:55;;;;;;;6.60;2.50;;;;;34.30;97322.40;;;;110538;1253;41856;-68
2022/06/30 06:14:24;;;;;;;8.40;3.00;;;;;34.90;97323.20;;;;110729;1253;41544;-67
2022/06/30 06:16:53;;;;;;;5.60;2.40;;;;;34.84;97322.80;;;;110617;1253;41227;-68
2022/06/30 06:19:22;;;;;;;4.20;2.20;;;;;35.22;97322.60;;;;110768;1253;42380;-67
2022/06/30 06:21:51;;;;;;;5.60;2.30;;;;;35.80;97325.60;;;;110672;1253;41341;-68
2022/06/30 06:24:20;;;;;;;6.30;2.50;;;;;36.24;97328.00;;;;110503;1253;41270;-69
2022/06/30 06:26:49;;;;;;;5.80;2.30;;;;;36.78;97332.20;;;;110804;1253;41149;-70
2022/06/30 06:29:19;;;;;;;7.70;2.50;;;;;37.32;97329.80;;;;110534;1253;41525;-68
2022/06/30 06:31:48;;;;;;;6.50;2.20;;;;;37.22;97331.60;;;;110686;1253;41493;-68
2022/06/30 06:34:17;;;;;;;5.40;2.40;;;;;37.30;97334.60;;;;110606;1253;41157;-69
2022/06/30 06:36:47;;;;;;;4.10;2.00;;;;;37.54;97337.40;;;;110481;1254;41740;-68
2022/06/30 06:39:15;;;;;;;5.50;2.20;;;;;38.10;97336.60;;;;110460;1256;40915;-66
2022/06/30 06:41:44;;;;;;;5.80;2.40;;;;;38.50;97340.80;;;;110469;1252;41141;-68
2022/06/30 06:44:14;;;;;;;5.70;2.20;;;;;39.00;97339.00;;;;110747;1253;41158;-69
2022/06/30 06:46:43;;;;;;;9.00;2.50;;;;;39.50;97341.80;;;;110635;1253;41139;-68
2022/06/30 06:49:11;;;;;;;4.00;2.10;;;;;39.54;97343.00;;;;110623;1254;41363;-69
2022/06/30 06:51:40;;;;;;;5.90;2.50;;;;;39.20;97346.60;;;;110599;1254;41551;-69
2022/06/30 06:54:09;;;;;;;6.40;2.50;;;;;38.90;97349.20;;;;110641;1253;41172;-69
2022/06/30 06:56:38;;;;;;;5.50;2.30;;;;;38.54;97349.80;;;;110623;1254;41360;-68
2022/06/30 06:59:07;;;;;;;4.10;1.90;;;;;38.70;97348.40;;;;110698;1253;41162;-69
2022/06/30 07:01:36;;;;;;;5.40;2.30;;;;;39.36;97344.40;;;;110688;1253;41781;-68
2022/06/30 07:04:05;;;;;;;7.30;2.90;;;;;39.80;97342.80;;;;110754;1253;41427;-68
2022/06/30 07:06:34;;;;;;;5.60;2.60;;;;;39.46;97342.00;;;;110651;1254;41415;-68
2022/06/30 07:09:03;;;;;;;4.50;2.10;;;;;38.78;97344.20;;;;110503;1254;41455;-70
2022/06/30 07:11:32;;;;;;;8.30;3.00;;;;;37.70;97345.80;;;;110662;1254;41169;-67
2022/06/30 07:14:01;;;;;;;5.80;2.60;;;;;37.22;97349.20;;;;110425;1254;41629;-67
2022/06/30 07:16:31;;;;;;;5.80;2.50;;;;;36.54;97351.60;;;;110605;1253;41627;-67
2022/06/30 07:19:00;;;;;;;6.20;2.30;;;;;36.12;97348.20;;;;110261;1254;42131;-69
2022/06/30 07:21:29;;;;;;;5.30;1.90;;;;;36.04;97352.40;;;;110656;1254;41489;-68
2022/06/30 07:23:58;;;;;;;4.80;2.20;;;;;35.98;97354.40;;;;110579;1253;42131;-69
2022/06/30 07:26:26;;;;;;;7.00;3.00;;;;;35.64;97355.80;;;;110492;1254;41168;-69
2022/06/30 07:28:55;;;;;;;5.90;2.30;;;;;35.16;97355.80;;;;110238;1254;343911;-68
2022/06/30 07:31:24;;;;;;;6.10;2.40;;;;;34.68;97360.80;;;;110653;1252;41635;-68
2022/06/30 07:33:53;;;;;;;6.60;2.70;;;;;34.70;97355.60;;;;110663;1253;41491;-69
2022/06/30 07:36:22;;;;;;;5.10;2.30;;;;;34.36;97357.80;;;;110641;1253;42233;-68
2022/06/30 07:38:51;;;;;;;5.70;2.50;;;;;33.92;97361.80;;;;110571;1253;41523;-69
2022/06/30 07:41:20;;;;;;;6.20;2.50;;;;;33.50;97360.00;;;;110626;1255;41155;-68
2022/06/30 07:43:49;;;;;;;5.70;2.10;;;;;33.18;97361.20;;;;110736;1253;42403;-69
2022/06/30 07:46:19;;;;;;;6.70;2.80;;;;;33.40;97358.80;;;;110507;1253;41837;-69
2022/06/30 07:48:49;;;;;;;5.10;2.20;;;;;33.44;97361.40;;;;110702;1253;41181;-68
2022/06/30 07:51:20;;;;;;;5.30;2.20;;;;;33.50;97356.00;;;;110607;1254;41758;-68
2022/06/30 07:53:49;;;;;;;4.80;2.20;;;;;33.70;97351.20;;;;110464;1254;41161;-67
2022/06/30 07:56:18;;;;;;;6.90;2.40;;;;;33.80;97350.20;;;;110512;1253;41591;-68
2022/06/30 07:58:47;;;;;;;5.60;2.10;;;;;33.80;97347.40;;;;110662;1253;41133;-67
2022/06/30 08:01:19;;;;;;;6.20;2.30;;;;;34.00;97347.60;;;;110386;1253;41260;-68
2022/06/30 08:03:47;;;;;;;4.90;2.20;;;;;34.20;97345.80;;;;110644;1254;41322;-68
2022/06/30 08:06:16;;;;;;;7.00;2.60;;;;;34.40;97343.20;;;;110577;1254;41316;-68
2022/06/30 08:08:45;;;;;;;8.30;2.80;;;;;34.24;97337.80;;;;110606;1255;41195;-69
2022/06/30 08:11:14;;;;;;;5.90;2.40;;;;;34.00;97341.00;;;;110586;1251;41252;-69
2022/06/30 08:13:43;;;;;;;5.90;2.50;;;;;33.88;97346.20;;;;110570;1254;41138;-69
2022/06/30 08:16:12;;;;;;;4.70;2.30;;;;;33.70;97342.40;;;;110450;1256;41151;-68
2022/06/30 08:18:42;;;;;;;;;;;;;33.90;97337.60;;;;110621;1253;41164;-70
2022/06/30 08:21:11;;;;;;;7.80;2.80;;;;;34.08;97340.60;;;;110539;1256;41140;-69
2022/06/30 08:23:40;;;;;;;7.60;2.50;;;;;33.92;97344.60;;;;110615;1253;41563;-70
2022/06/30 08:26:09;;;;;;;5.00;2.20;;;;;33.90;97341.60;;;;110642;1253;41247;-69
2022/06/30 08:28:37;;;;;;;4.90;2.30;;;;;34.00;97342.20;;;;110434;1254;41202;-70
2022/06/30 08:31:08;;;;;;;5.60;2.40;;;;;34.20;97341.00;;;;110506;1253;41273;-69
2022/06/30 08:33:37;;;;;;;7.20;3.30;;;;;34.20;97334.60;;;;110574;1254;41748;-70
2022/06/30 08:36:06;;;;;;;8.10;3.10;;;;;34.10;97342.60;;;;110621;1254;41159;-70
2022/06/30 08:38:35;;;;;;;5.20;2.20;;;;;33.80;97338.60;;;;110555;1256;41329;-69
2022/06/30 08:43:53;;;;;;;7.50;2.60;;;;;34.10;97331.60;;;;110643;1254;41311;-69
2022/06/30 08:46:23;;;;;;;5.50;2.50;;;;;34.40;97331.40;;;;110703;1253;41268;-68
2022/06/30 08:48:53;;;;;;;6.80;3.10;;;;;34.64;97329.00;;;;110570;1254;41725;-68
2022/06/30 08:51:22;;;;;;;7.10;2.30;;;;;34.70;97323.80;;;;110634;1254;41157;-70
2022/06/30 08:53:53;;;;;;;6.20;2.20;;;;;34.32;97324.40;;;;110422;1254;41150;-69
2022/06/30 08:56:23;;;;;;;5.70;2.40;;;;;34.50;97323.00;;;;110617;1254;41142;-71
2022/06/30 08:58:54;;;;;;;;;;;;;34.80;97321.60;;;;110642;1253;41736;-69
2022/06/30 09:01:25;;;;;;;7.80;3.10;;;;;35.04;97315.20;;;;110568;1253;41144;-70
2022/06/30 09:03:55;;;;;;;6.10;3.00;;;;;34.90;97315.20;;;;110628;1253;41165;-70
2022/06/30 09:06:24;;;;;;;8.70;3.30;;;;;34.50;97314.00;;;;110567;1254;41160;-70
2022/06/30 09:09:05;;;;;;;6.50;2.80;;;;;34.46;97319.60;;;;110286;1253;41602;-69
2022/06/30 09:11:44;;;;;;;6.70;3.20;;;;;34.52;97316.40;;;;110603;1253;41882;-69
2022/06/30 09:14:46;;;;;;;5.90;2.80;;;;;34.94;97314.60;;;;110645;1253;41130;-69
2022/06/30 09:17:20;;;;;;;6.40;2.30;;;;;35.10;97306.80;;;;110116;1259;41678;-69
2022/06/30 09:20:05;;;;;;;6.40;3.20;;;;;35.54;97308.80;;;;110160;1259;42231;-70
2022/06/30 09:22:37;;;;;;;9.50;2.50;;;;;36.28;97306.40;;;;109747;1260;41622;-68
2022/06/30 09:25:12;;;;;;;5.50;2.40;;;;;36.40;97305.40;;;;110136;1259;41166;-69
2022/06/30 09:27:43;;;;;;;7.40;2.50;;;;;37.12;97302.60;;;;110104;1261;42722;-70
2022/06/30 09:30:14;;;;;;;7.50;2.50;;;;;37.76;97300.40;;;;110174;1259;41170;-70
2022/06/30 09:32:53;;;;;;;5.70;2.30;;;;;38.44;97289.40;;;;109932;1260;41195;-69
2022/06/30 09:35:23;;;;;;;4.40;2.20;;;;;39.10;97282.80;;;;110119;1260;41495;-68
2022/06/30 09:38:04;;;;;;;4.60;2.20;;;;;39.06;97279.40;;;;110185;1259;41249;-70
2022/06/30 09:41:03;;;;;;;5.00;2.20;;;;;39.90;97276.40;;;;110178;1259;41143;-69
2022/06/30 09:43:36;;;;;;;6.80;2.40;;;;;40.50;97276.00;;;;109963;1261;41287;-70
2022/06/30 09:46:08;;;;;;;7.50;3.20;;;;;40.70;97276.00;;;;110181;1260;41685;-70
2022/06/30 09:48:40;;;;;;;8.20;2.70;;;;;40.50;97265.20;;;;110134;1260;41173;-71
2022/06/30 09:51:09;;;;;;;5.30;2.20;;;;;39.60;97267.60;;;;110096;1260;41280;-70
2022/06/30 09:53:38;;;;;;;5.80;2.60;;;;;39.38;97262.00;;;;110141;1255;41287;-69
2022/06/30 09:56:12;;;;;;;6.90;2.50;;;;;39.70;97263.80;;;;110646;1254;41652;-70
2022/06/30 09:58:42;;;;;;;6.20;2.70;;;;;39.60;97266.40;;;;110668;1253;41362;-70
2022/06/30 10:01:11;;;;;;;5.00;2.30;;;;;39.60;97263.00;;;;110663;1254;41732;-70
2022/06/30 10:03:44;;;;;;;;;;;;;39.30;97258.40;;;;110650;1254;41146;-70
2022/06/30 10:06:17;;;;;;;4.20;1.90;;;;;39.50;97257.60;;;;110635;1254;42467;-70
2022/06/30 10:08:47;;;;;;;7.10;2.10;;;;;40.02;97249.60;;;;110599;1256;41627;-70
2022/06/30 10:11:16;;;;;;;8.60;3.00;;;;;40.56;97246.80;;;;110570;1254;41385;-69
2022/06/30 10:13:47;;;;;;;5.50;2.10;;;;;40.64;97241.80;;;;110431;1256;41194;-69
2022/06/30 10:16:17;;;;;;;3.90;2.00;;;;;40.10;97234.00;;;;110468;1254;41323;-69
2022/06/30 10:18:46;;;;;;;4.70;2.00;;;;;40.40;97230.00;;;;110576;1254;41633;-70
2022/06/30 10:21:15;;;;;;;;;;;;;40.60;97224.00;;;;110592;1254;42399;-69
2022/06/30 10:23:44;;;;;;;4.10;1.90;;;;;40.84;97211.20;;;;110497;1254;41625;-69
2022/06/30 10:27:12;;;;;;;4.50;2.00;;;;;41.10;97209.80;;;;110614;1253;41151;-70
2022/06/30 10:29:02;;;;;;;5.00;2.40;;;;;41.30;97210.60;;;;110594;1254;41178;-70
2022/06/30 10:31:40;;;;;;;6.80;2.70;;;;;41.42;97210.40;;;;110637;1253;43365;-69
2022/06/30 10:34:26;;;;;;;7.70;3.10;;;;;40.66;97222.00;;;;110538;1254;42237;-69
2022/06/30 10:37:05;;;;;;;6.20;2.60;;;;;39.72;97224.00;;;;110611;1254;41152;-68
2022/06/30 10:39:43;;;;;;;5.00;2.10;;;;;39.36;97231.80;;;;110557;1254;41274;-69
2022/06/30 10:42:47;;;;;;;4.20;2.00;;;;;38.36;97226.20;;;;110562;1254;41691;-69
2022/06/30 10:45:31;;;;;;;7.80;2.50;;;;;39.02;97210.00;;;;110634;1253;41420;-70
2022/06/30 10:48:05;;;;;;;6.60;2.50;;;;;39.40;97206.40;;;;110652;1254;42503;-69
2022/06/30 10:50:42;;;;;;;4.90;2.30;;;;;39.08;97208.40;;;;110583;1254;41282;-68
2022/06/30 10:53:17;;;;;;;5.20;2.10;;;;;38.62;97212.20;;;;110633;1254;41143;-68
2022/06/30 10:55:52;;;;;;;4.70;2.10;;;;;39.22;97202.60;;;;110680;1253;41155;-69
2022/06/30 10:58:22;;;;;;;6.00;2.10;;;;;37.10;97211.40;;;;110615;1254;41155;-69
2022/06/30 11:01:01;;;;;;;4.90;2.00;;;;;38.04;97212.80;;;;110571;1253;41606;-69
2022/06/30 11:03:30;;;;;;;7.10;2.40;;;;;38.36;97220.80;;;;110688;1255;41164;-69
2022/06/30 11:06:05;;;;;;;5.40;2.30;;;;;38.40;97221.20;;;;110569;1254;41198;-68
2022/06/30 11:08:50;;;;;;;4.40;2.10;;;;;38.50;97214.80;;;;110572;1255;41158;-69
2022/06/30 11:11:25;;;;;;;4.20;2.10;;;;;38.40;97216.00;;;;110555;1254;41152;-69
2022/06/30 11:14:00;;;;;;;5.30;2.00;;;;;38.02;97216.60;;;;110591;1253;41812;-68
2022/06/30 11:16:30;;;;;;;3.70;1.90;;;;;38.00;97222.20;;;;110524;1254;41170;-69
2022/06/30 11:19:00;;;;;;;8.70;2.20;;;;;38.02;97226.60;;;;110616;1254;41603;-70
2022/06/30 11:21:30;;;;;;;;;;;;;38.00;97223.60;;;;110655;1253;41867;-67
2022/06/30 11:24:01;;;;;;;5.90;2.30;;;;;37.90;97224.60;;;;110591;1253;41559;-68
2022/06/30 11:29:30;;;;;;;5.50;2.20;;;;;37.60;97232.20;;;;110431;1256;41328;-70
2022/06/30 11:32:01;;;;;;;7.80;2.50;;;;;37.50;97228.20;;;;110530;1254;41126;-69
2022/06/30 11:34:31;;;;;;;4.30;2.00;;;;;37.40;97225.80;;;;110382;1254;41167;-69
2022/06/30 11:37:00;;;;;;;4.80;2.20;;;;;37.30;97219.00;;;;110638;1254;41839;-69
2022/06/30 11:39:29;;;;;;;5.60;2.20;;;;;37.24;97219.60;;;;110549;1253;41342;-69
2022/06/30 11:42:01;;;;;;;4.90;2.10;;;;;37.18;97214.00;;;;110397;1255;41161;-68
2022/06/30 11:44:33;;;;;;;6.60;2.30;;;;;37.10;97208.00;;;;110445;1256;42404;-70
2022/06/30 11:47:05;;;;;;;5.30;2.50;;;;;37.10;97202.80;;;;110637;1253;41627;-69
2022/06/30 11:49:46;;;;;;;4.50;2.00;;;;;37.12;97200.00;;;;110591;1254;41607;-69
2022/06/30 11:52:23;;;;;;;6.30;2.30;;;;;37.40;97198.60;;;;110457;1253;41215;-68
2022/06/30 11:54:57;;;;;;;5.10;2.20;;;;;37.70;97198.00;;;;110661;1253;41613;-69
2022/06/30 11:57:29;;;;;;;5.20;2.20;;;;;37.90;97194.80;;;;110595;1253;41285;-68
2022/06/30 12:00:20;;;;;;;7.20;2.30;;;;;38.00;97193.40;;;;110603;1254;41198;-69
2022/06/30 12:02:49;;;;;;;4.90;1.90;;;;;38.10;97198.00;;;;110640;1253;42052;-69
2022/06/30 12:05:24;;;;;;;6.20;2.30;;;;;38.08;97196.00;;;;110554;1253;42057;-70
2022/06/30 12:07:53;;;;;;;5.50;2.30;;;;;38.10;97200.20;;;;110653;1253;41207;-69
2022/06/30 12:10:24;;;;;;;5.20;2.30;;;;;38.10;97203.40;;;;110605;1253;42197;-69
2022/06/30 12:12:58;;;;;;;6.60;2.40;;;;;38.04;97205.60;;;;110653;1253;41808;-72
2022/06/30 12:15:27;;;;;;;6.60;2.30;;;;;38.00;97207.40;;;;110571;1254;41179;-69
2022/06/30 12:17:56;;;;;;;5.00;2.40;;;;;37.74;97211.60;;;;110559;1253;41157;-70
2022/06/30 12:20:29;;;;;;;6.00;2.10;;;;;37.62;97211.20;;;;110650;1254;41157;-69
2022/06/30 12:23:00;;;;;;;5.30;2.30;;;;;37.20;97213.20;;;;110559;1254;41130;-69
2022/06/30 12:25:29;;;;;;;5.40;2.30;;;;;37.20;97215.60;;;;110615;1253;41260;-69
2022/06/30 12:27:59;;;;;;;7.30;2.50;;;;;37.20;97211.80;;;;110566;1254;41148;-70
2022/06/30 12:30:35;;;;;;;5.40;2.40;;;;;37.20;97213.00;;;;110526;1253;41139;-69
2022/06/30 12:33:07;;;;;;;4.80;2.20;;;;;37.20;97216.80;;;;110632;1253;41255;-69
2022/06/30 12:35:38;;;;;;;5.80;2.10;;;;;37.10;97212.00;;;;110690;1253;41141;-70
2022/06/30 12:38:18;;;;;;;9.30;2.70;;;;;37.06;97217.00;;;;110547;1253;41161;-70
2022/06/30 12:40:48;;;;;;;6.80;2.70;;;;;36.90;97222.20;;;;110499;1254;41207;-68
2022/06/30 12:43:18;;;;;;;;;;;;;36.80;97225.20;;;;110663;1253;41747;-70
2022/06/30 12:45:56;;;;;;;6.10;2.50;;;;;36.28;97229.00;;;;110663;1253;41175;-69